VISIB

Not for real navigation. The accuracy of this data is not assured See disclaimer for more information



ICAO NAME COUNTRY WIND Kt GUST Kt VIS m TEMP/DEW C BARO METAR
SCIC Curico Chile 0 0 100 2/2 30.12 SCIC 161200Z AUTO 00000KT 0100 R/////// FG VV001 02/02 Q1020
YMLT Launceston Airport Australia 5 0 150 5/5 30.15 YMLT 161200Z AUTO 35005KT 0150 // ////// 05/05 Q1021 RMK RF00.0/000.0 CLD
CYYN Swift Current, Sask. Canada 5 0 200 10/9 29.97 CYYN 161200Z AUTO 34005KT 0.125SM FG VV002 10/09 A2997 RMK SLP156
CYYH Spence Bay Airport Canada 4 0 200 2/1 30.01 CYYH 161200Z 17004KT 0.125SM FG VV003 02/01 A3001 RMK FG8 SLP166
CYHK Gjoa Haven Airport Canada 6 0 200 3/3 30.01 CYHK 161100Z AUTO 22006KT 0.125SM FG VV003 03/03 A3001 RMK SLP167

Show more